Time;durP1;ratioP1;P1;durP2;ratioP2;P2;SDS_P1;SDS_P2;PMS_P1;PMS_P2;Temp;Humidity;BMP_temperature;BMP_pressure;BME280_temperature;BME280_humidity;BME280_pressure;Samples;Min_cycle;Max_cycle;Signal;HPM_P1;HPM_P2
2023/12/02 00:01:19;;;;;;;38.38;21.60;;;2.00;99.30;;;;;;4997065;28;20040;-80
2023/12/02 00:03:45;;;;;;;35.75;19.95;;;1.90;99.40;;;;;;5014658;28;20026;-80
2023/12/02 00:06:11;;;;;;;39.42;21.52;;;1.90;99.40;;;;;;5014688;28;20041;-80
2023/12/02 00:08:37;;;;;;;38.20;20.45;;;2.00;99.40;;;;;;5014623;28;20029;-79
2023/12/02 00:11:03;;;;;;;40.42;21.00;;;2.00;99.20;;;;;;5014566;28;20025;-79
2023/12/02 00:13:29;;;;;;;37.92;20.05;;;1.90;99.00;;;;;;5014328;28;20034;-79
2023/12/02 00:15:54;;;;;;;39.88;21.85;;;1.80;99.00;;;;;;5014476;28;20045;-79
2023/12/02 00:18:20;;;;;;;39.05;20.58;;;1.90;99.10;;;;;;5013075;28;20038;-79
2023/12/02 00:20:45;;;;;;;40.72;21.98;;;2.00;98.90;;;;;;5013030;28;20038;-80
2023/12/02 00:23:11;;;;;;;42.53;23.13;;;1.90;98.80;;;;;;5013667;28;20040;-81
2023/12/02 00:25:37;;;;;;;36.90;20.30;;;1.80;99.00;;;;;;4996841;28;20030;-81
2023/12/02 00:28:02;;;;;;;36.25;20.30;;;1.80;99.10;;;;;;5014540;28;20160;-80
2023/12/02 00:30:28;;;;;;;39.13;21.20;;;1.90;99.00;;;;;;5012589;28;20121;-80
2023/12/02 00:32:54;;;;;;;38.55;21.38;;;2.00;98.60;;;;;;5014502;28;20034;-80
2023/12/02 00:35:19;;;;;;;40.28;20.95;;;1.90;98.60;;;;;;5013084;28;20554;-80
2023/12/02 00:37:45;;;;;;;33.85;18.42;;;1.90;98.60;;;;;;5012629;28;20037;-80
2023/12/02 00:40:11;;;;;;;34.20;19.73;;;1.90;98.60;;;;;;5012706;28;20042;-80
2023/12/02 00:42:36;;;;;;;40.05;20.85;;;2.00;98.40;;;;;;5013162;28;20037;-80
2023/12/02 00:45:02;;;;;;;37.60;20.77;;;2.00;98.40;;;;;;5012813;28;20030;-80
2023/12/02 00:47:28;;;;;;;37.80;19.92;;;2.00;98.30;;;;;;5014030;28;20026;-80
2023/12/02 00:49:53;;;;;;;36.95;19.42;;;1.90;98.40;;;;;;5012496;28;20546;-81
2023/12/02 00:52:19;;;;;;;43.78;20.58;;;2.00;98.40;;;;;;5013026;28;20038;-80
2023/12/02 00:54:45;;;;;;;36.45;20.38;;;1.90;98.10;;;;;;5012567;28;20038;-79
2023/12/02 00:57:10;;;;;;;36.28;20.00;;;1.90;98.30;;;;;;5013447;28;20037;-80
2023/12/02 00:59:36;;;;;;;39.28;21.05;;;1.80;98.50;;;;;;5012245;28;20037;-78
2023/12/02 01:02:02;;;;;;;36.40;20.17;;;1.70;98.50;;;;;;5012118;28;20092;-80
2023/12/02 01:04:27;;;;;;;36.47;19.65;;;1.60;98.70;;;;;;5012234;28;20054;-79
2023/12/02 01:06:53;;;;;;;36.17;19.23;;;1.50;98.70;;;;;;5013479;28;20054;-79
2023/12/02 01:09:18;;;;;;;38.78;20.52;;;1.50;98.70;;;;;;5013688;28;20061;-79
2023/12/02 01:11:44;;;;;;;37.13;20.52;;;1.20;98.90;;;;;;5013274;28;20473;-79
2023/12/02 01:14:10;;;;;;;39.63;21.13;;;1.10;99.20;;;;;;5013283;28;20034;-80
2023/12/02 01:16:35;;;;;;;37.22;20.02;;;1.20;99.30;;;;;;5013604;28;20384;-80
2023/12/02 01:19:01;;;;;;;37.92;20.20;;;1.30;99.30;;;;;;5012577;28;20508;-80
2023/12/02 01:21:27;;;;;;;36.78;20.27;;;1.30;99.00;;;;;;5011650;28;20109;-80
2023/12/02 01:23:52;;;;;;;34.88;19.15;;;1.20;99.20;;;;;;5013294;28;20066;-80
2023/12/02 01:26:18;;;;;;;36.33;19.70;;;1.20;99.20;;;;;;5013350;28;20037;-79
2023/12/02 01:28:44;;;;;;;35.97;19.65;;;1.30;99.20;;;;;;5012271;28;20034;-80
2023/12/02 01:31:09;;;;;;;35.80;19.23;;;1.30;99.10;;;;;;5012266;28;20113;-80
2023/12/02 01:33:35;;;;;;;33.30;18.40;;;1.30;99.10;;;;;;5010220;28;20038;-78
2023/12/02 01:36:00;;;;;;;35.53;19.58;;;1.40;99.20;;;;;;5010076;28;20065;-80
2023/12/02 01:38:26;;;;;;;34.45;19.20;;;1.40;99.00;;;;;;5001232;28;20030;-79
2023/12/02 01:40:52;;;;;;;35.28;19.48;;;1.40;99.00;;;;;;5016900;28;20033;-80
2023/12/02 01:43:25;;;;;;;34.47;19.20;;;1.40;98.80;;;;;;5018072;28;20037;-79
2023/12/02 01:45:51;;;;;;;35.40;19.13;;;1.40;99.00;;;;;;5015107;28;20209;-79
2023/12/02 01:48:21;;;;;;;35.67;18.85;;;1.50;99.00;;;;;;5014027;28;20113;-80
2023/12/02 01:50:48;;;;;;;33.88;18.52;;;1.50;98.80;;;;;;5013632;28;20117;-79
2023/12/02 01:53:14;;;;;;;33.55;18.60;;;1.60;98.80;;;;;;5015215;28;20486;-79
2023/12/02 01:55:39;;;;;;;35.15;19.92;;;1.50;98.70;;;;;;4999772;28;20065;-80
2023/12/02 01:58:05;;;;;;;35.90;18.10;;;1.30;98.60;;;;;;5017066;28;20159;-78
2023/12/02 02:00:31;;;;;;;35.88;19.13;;;1.20;98.90;;;;;;5015864;28;20088;-79
2023/12/02 02:02:56;;;;;;;34.90;18.92;;;1.20;99.00;;;;;;5016647;28;20053;-78
2023/12/02 02:05:22;;;;;;;31.60;17.77;;;1.30;99.00;;;;;;5015881;28;20030;-78
2023/12/02 02:07:48;;;;;;;33.92;18.27;;;1.40;99.00;;;;;;5015448;28;20052;-79
2023/12/02 02:10:13;;;;;;;33.38;17.63;;;1.60;99.00;;;;;;5015493;28;20030;-78
2023/12/02 02:12:39;;;;;;;34.25;18.23;;;1.60;98.80;;;;;;5016291;28;20022;-78
2023/12/02 02:15:05;;;;;;;32.70;18.27;;;1.80;98.60;;;;;;5015310;28;20041;-78
2023/12/02 02:17:31;;;;;;;32.83;18.08;;;1.70;98.30;;;;;;5015713;28;20128;-78
2023/12/02 02:19:57;;;;;;;32.90;18.38;;;1.50;98.50;;;;;;5016845;28;20069;-77
2023/12/02 02:22:22;;;;;;;32.88;17.65;;;1.50;98.60;;;;;;5014606;28;20038;-78
2023/12/02 02:24:48;;;;;;;32.17;17.50;;;1.50;98.70;;;;;;5016433;28;20113;-78
2023/12/02 02:27:14;;;;;;;31.08;17.25;;;1.60;98.80;;;;;;5016554;28;20056;-78
2023/12/02 02:29:39;;;;;;;33.50;17.55;;;1.70;98.70;;;;;;5016616;28;20053;-78
2023/12/02 02:32:05;;;;;;;33.65;18.45;;;1.80;98.40;;;;;;5016428;28;20041;-78
2023/12/02 02:34:31;;;;;;;33.22;18.08;;;1.60;98.20;;;;;;5014965;28;20037;-78
2023/12/02 02:36:57;;;;;;;34.35;18.27;;;1.60;98.40;;;;;;5015142;28;20030;-78
2023/12/02 02:39:23;;;;;;;35.20;19.77;;;1.70;98.40;;;;;;5015173;28;20052;-78
2023/12/02 02:41:49;;;;;;;35.53;18.27;;;1.60;98.40;;;;;;5031589;28;20442;-78
2023/12/02 02:44:14;;;;;;;35.72;18.58;;;1.60;98.40;;;;;;5016232;28;20129;-78
2023/12/02 02:46:40;;;;;;;33.47;18.48;;;1.50;98.20;;;;;;5015052;28;20105;-78
2023/12/02 02:49:06;;;;;;;31.25;17.60;;;1.50;98.50;;;;;;5015951;28;20109;-78
2023/12/02 02:51:32;;;;;;;29.95;16.67;;;1.60;98.60;;;;;;5014424;28;20034;-78
2023/12/02 02:53:58;;;;;;;31.27;16.80;;;1.80;98.60;;;;;;5016120;28;20057;-78
2023/12/02 02:56:23;;;;;;;31.45;18.13;;;1.90;98.50;;;;;;5015046;28;20030;-78
2023/12/02 02:58:49;;;;;;;30.33;17.17;;;1.90;98.40;;;;;;4998063;28;20089;-78
2023/12/02 03:01:15;;;;;;;29.30;16.77;;;2.00;98.30;;;;;;5014187;28;20061;-78
2023/12/02 03:03:41;;;;;;;32.15;18.60;;;2.00;98.20;;;;;;5014821;28;20038;-78
2023/12/02 03:06:07;;;;;;;30.50;18.05;;;2.00;97.90;;;;;;5015517;28;20064;-78
2023/12/02 03:08:33;;;;;;;33.20;18.38;;;1.90;97.80;;;;;;5014424;28;20117;-79
2023/12/02 03:10:58;;;;;;;31.88;17.10;;;1.80;97.70;;;;;;4998519;28;20105;-79
2023/12/02 03:13:24;;;;;;;32.40;17.17;;;1.70;98.10;;;;;;4998025;28;20045;-79
2023/12/02 03:15:49;;;;;;;31.58;17.67;;;1.90;98.10;;;;;;5014577;28;20037;-79
2023/12/02 03:18:15;;;;;;;32.80;18.17;;;2.00;98.10;;;;;;5016061;28;20041;-79
2023/12/02 03:20:41;;;;;;;31.08;17.95;;;2.00;97.90;;;;;;5015546;28;20034;-79
2023/12/02 03:23:06;;;;;;;34.78;18.15;;;2.10;98.10;;;;;;5015245;28;20042;-78
2023/12/02 03:25:32;;;;;;;29.92;17.15;;;2.10;97.80;;;;;;5014143;28;20036;-80
2023/12/02 03:27:58;;;;;;;30.98;16.90;;;2.10;97.80;;;;;;5015458;28;20485;-79
2023/12/02 03:30:23;;;;;;;30.83;16.20;;;2.20;97.70;;;;;;5015265;28;20470;-81
2023/12/02 03:32:49;;;;;;;32.28;18.15;;;2.20;97.70;;;;;;5014625;28;20026;-81
2023/12/02 03:35:15;;;;;;;31.10;17.25;;;2.30;97.70;;;;;;4981862;28;20470;-83
2023/12/02 03:37:41;;;;;;;30.77;16.67;;;2.30;97.70;;;;;;5014201;28;20109;-79
2023/12/02 03:40:08;;;;;;;32.05;17.27;;;2.40;97.70;;;;;;5013641;28;20482;-80
2023/12/02 03:42:34;;;;;;;30.95;17.17;;;2.40;97.50;;;;;;5015428;28;20044;-80
2023/12/02 03:45:00;;;;;;;31.05;16.98;;;2.40;97.60;;;;;;5014119;28;20029;-79
2023/12/02 03:47:25;;;;;;;32.70;18.30;;;2.40;97.60;;;;;;5013886;28;20088;-80
2023/12/02 03:49:51;;;;;;;31.42;17.00;;;2.50;97.60;;;;;;5014760;28;20057;-80
2023/12/02 03:52:16;;;;;;;30.90;17.45;;;2.60;97.60;;;;;;5014519;28;20038;-80
2023/12/02 03:54:42;;;;;;;29.42;15.75;;;2.60;97.50;;;;;;5014043;28;20053;-80
2023/12/02 03:57:08;;;;;;;33.13;18.15;;;2.60;97.40;;;;;;5014472;28;20059;-79
2023/12/02 03:59:33;;;;;;;30.33;16.30;;;2.70;97.30;;;;;;5013644;28;20041;-80
2023/12/02 04:01:59;;;;;;;31.95;17.73;;;2.70;97.20;;;;;;4997202;28;20087;-79
2023/12/02 04:04:25;;;;;;;32.83;18.13;;;2.70;97.20;;;;;;5013601;28;20083;-80
2023/12/02 04:06:50;;;;;;;32.72;19.05;;;2.70;97.10;;;;;;5013427;28;20486;-79
2023/12/02 04:09:18;;;;;;;27.70;15.55;;;2.70;97.10;;;;;;5013407;28;20129;-79
2023/12/02 04:11:46;;;;;;;34.13;18.05;;;2.70;96.90;;;;;;5013582;28;20120;-79
2023/12/02 04:14:12;;;;;;;30.40;17.08;;;2.70;96.80;;;;;;5015238;28;20060;-79
2023/12/02 04:16:43;;;;;;;33.00;17.92;;;2.70;96.80;;;;;;5014625;28;20109;-79
2023/12/02 04:19:09;;;;;;;31.52;16.70;;;2.60;96.90;;;;;;5014289;28;20036;-79
2023/12/02 04:21:36;;;;;;;31.27;18.40;;;2.50;97.00;;;;;;5013798;28;20022;-79
2023/12/02 04:24:04;;;;;;;33.08;17.70;;;2.50;97.20;;;;;;5016592;28;20116;-79
2023/12/02 04:26:31;;;;;;;29.90;17.00;;;2.50;97.20;;;;;;5016479;28;20033;-79
2023/12/02 04:28:57;;;;;;;32.22;17.10;;;2.40;97.10;;;;;;5015418;28;20026;-79
2023/12/02 04:31:22;;;;;;;28.50;15.45;;;2.40;97.20;;;;;;5016881;28;20096;-80
2023/12/02 04:33:48;;;;;;;30.88;17.48;;;2.40;97.30;;;;;;5015971;28;20105;-80
2023/12/02 04:36:14;;;;;;;30.00;17.58;;;2.40;97.30;;;;;;4997635;28;20118;-80
2023/12/02 04:38:40;;;;;;;28.92;16.35;;;2.50;97.30;;;;;;5013455;28;20065;-80
2023/12/02 04:41:06;;;;;;;29.98;16.10;;;2.50;97.40;;;;;;5014128;28;20056;-78
2023/12/02 04:43:32;;;;;;;30.88;16.55;;;2.50;97.20;;;;;;5014346;28;20405;-80
2023/12/02 04:45:57;;;;;;;28.33;16.35;;;2.50;97.20;;;;;;5014418;28;20101;-79
2023/12/02 04:48:23;;;;;;;30.73;16.77;;;2.50;97.20;;;;;;4996465;28;20026;-79
2023/12/02 04:50:49;;;;;;;32.60;17.52;;;2.50;97.30;;;;;;4996302;28;20046;-79
2023/12/02 04:53:24;;;;;;;31.52;16.85;;;2.50;97.40;;;;;;4979510;28;20072;-79
2023/12/02 04:55:52;;;;;;;29.25;16.50;;;2.50;97.40;;;;;;5012452;28;20440;-79
2023/12/02 04:58:18;;;;;;;30.50;16.33;;;2.50;97.40;;;;;;4995854;28;20489;-78
2023/12/02 05:00:44;;;;;;;30.08;16.63;;;2.50;97.40;;;;;;5013429;28;20033;-79
2023/12/02 05:03:10;;;;;;;30.15;16.10;;;2.50;97.40;;;;;;5012508;28;20524;-79
2023/12/02 05:05:36;;;;;;;32.67;17.33;;;2.50;97.30;;;;;;5012256;28;20061;-79
2023/12/02 05:08:02;;;;;;;31.20;16.20;;;2.50;97.20;;;;;;5012028;28;20032;-78
2023/12/02 05:10:28;;;;;;;29.92;16.63;;;2.40;97.20;;;;;;5012959;28;20026;-79
2023/12/02 05:12:53;;;;;;;31.48;17.65;;;2.40;97.30;;;;;;5012118;28;20083;-79
2023/12/02 05:15:19;;;;;;;32.38;17.92;;;2.40;97.30;;;;;;5011912;28;20041;-79
2023/12/02 05:17:46;;;;;;;28.55;15.98;;;2.40;97.40;;;;;;5012952;28;20026;-79
2023/12/02 05:20:13;;;;;;;29.67;16.13;;;2.50;97.50;;;;;;5013477;28;20038;-79
2023/12/02 05:22:39;;;;;;;32.17;17.48;;;2.50;97.50;;;;;;5011589;28;20037;-79
2023/12/02 05:25:06;;;;;;;29.63;16.85;;;2.40;97.40;;;;;;4991620;28;20128;-79
2023/12/02 05:27:32;;;;;;;31.42;17.50;;;2.50;97.50;;;;;;5011099;28;20030;-78
2023/12/02 05:29:58;;;;;;;31.60;17.55;;;2.40;97.40;;;;;;4994291;28;20053;-78
2023/12/02 05:32:24;;;;;;;30.80;16.85;;;2.50;97.50;;;;;;5008680;28;20038;-80
2023/12/02 05:34:50;;;;;;;31.35;16.70;;;2.40;97.30;;;;;;4993332;28;20375;-79
2023/12/02 05:37:15;;;;;;;31.48;16.70;;;2.50;97.40;;;;;;4976076;28;20521;-79
2023/12/02 05:39:41;;;;;;;31.13;17.25;;;2.40;97.40;;;;;;4993728;28;20127;-79
2023/12/02 05:42:08;;;;;;;30.55;16.85;;;2.40;97.40;;;;;;4993438;28;20041;-79
2023/12/02 05:44:34;;;;;;;30.38;17.27;;;2.50;97.30;;;;;;4991948;28;20420;-78
2023/12/02 05:47:00;;;;;;;30.83;17.35;;;2.40;97.30;;;;;;4993348;28;20041;-78
2023/12/02 05:49:25;;;;;;;34.72;18.70;;;2.40;97.30;;;;;;4993385;28;20031;-79
2023/12/02 05:51:51;;;;;;;34.28;18.58;;;2.40;97.30;;;;;;4991638;28;20076;-79
2023/12/02 05:54:17;;;;;;;33.88;18.52;;;2.40;97.30;;;;;;4992020;28;20085;-78
2023/12/02 05:56:43;;;;;;;32.72;18.13;;;2.20;97.30;;;;;;4993178;28;20419;-79
2023/12/02 05:59:08;;;;;;;31.67;17.65;;;2.20;97.40;;;;;;4975831;28;20085;-79
2023/12/02 06:01:34;;;;;;;33.90;17.42;;;2.10;97.40;;;;;;4991937;28;20031;-79
2023/12/02 06:04:00;;;;;;;32.40;17.65;;;2.20;97.60;;;;;;4993763;28;20097;-78
2023/12/02 06:06:26;;;;;;;30.20;16.88;;;2.20;97.60;;;;;;4992150;28;20563;-79
2023/12/02 06:08:51;;;;;;;33.83;18.17;;;2.20;97.60;;;;;;4991846;28;20047;-78
2023/12/02 06:11:17;;;;;;;33.97;18.85;;;2.20;97.50;;;;;;4995350;28;20399;-79
2023/12/02 06:13:43;;;;;;;32.67;17.95;;;2.20;97.50;;;;;;4994996;28;20034;-79
2023/12/02 06:16:09;;;;;;;34.13;18.23;;;2.20;97.50;;;;;;5011314;28;20034;-79
2023/12/02 06:18:35;;;;;;;34.53;17.42;;;2.20;97.60;;;;;;4979187;28;20462;-78
2023/12/02 06:21:00;;;;;;;31.83;17.17;;;2.20;97.70;;;;;;5013007;28;20069;-78
2023/12/02 06:23:28;;;;;;;32.67;17.92;;;2.20;97.60;;;;;;4994825;28;20041;-78
2023/12/02 06:25:54;;;;;;;33.65;17.23;;;2.30;97.70;;;;;;5011476;28;20134;-77
2023/12/02 06:28:20;;;;;;;35.53;19.45;;;2.30;97.60;;;;;;5011514;28;20505;-77
2023/12/02 06:30:46;;;;;;;30.67;17.30;;;2.30;97.60;;;;;;4994915;28;20521;-77
2023/12/02 06:33:12;;;;;;;34.88;18.95;;;2.30;97.70;;;;;;5011285;28;20061;-77
2023/12/02 06:35:38;;;;;;;34.72;18.92;;;2.20;97.70;;;;;;5011126;28;20058;-77
2023/12/02 06:38:03;;;;;;;35.45;19.30;;;2.20;97.80;;;;;;5011334;28;20477;-77
2023/12/02 06:40:29;;;;;;;35.53;19.02;;;2.20;97.90;;;;;;5014537;28;20371;-78
2023/12/02 06:42:55;;;;;;;33.85;19.05;;;2.10;97.90;;;;;;5015800;28;20441;-78
2023/12/02 06:45:20;;;;;;;33.95;18.42;;;2.00;97.90;;;;;;5014562;28;20034;-78
2023/12/02 06:47:46;;;;;;;35.63;19.38;;;2.00;98.10;;;;;;4998403;28;20357;-78
2023/12/02 06:50:12;;;;;;;35.95;19.23;;;2.00;98.10;;;;;;5015841;28;20044;-78
2023/12/02 06:52:38;;;;;;;33.00;17.90;;;2.00;98.00;;;;;;5014142;28;20117;-78
2023/12/02 06:55:04;;;;;;;32.92;16.90;;;2.10;98.10;;;;;;4998279;28;20466;-78
2023/12/02 06:57:29;;;;;;;32.33;17.13;;;2.10;98.10;;;;;;5015402;28;20030;-77
2023/12/02 06:59:55;;;;;;;31.35;17.48;;;2.20;98.10;;;;;;5017103;28;20113;-79
2023/12/02 07:02:21;;;;;;;31.52;17.58;;;2.20;98.10;;;;;;5016222;28;20065;-79
2023/12/02 07:04:46;;;;;;;34.58;18.27;;;2.20;98.00;;;;;;5017206;28;20455;-78
2023/12/02 07:07:12;;;;;;;35.50;19.52;;;2.20;98.00;;;;;;5017489;28;20096;-79
2023/12/02 07:09:38;;;;;;;32.08;18.13;;;2.20;98.00;;;;;;5016489;28;20037;-79
2023/12/02 07:12:04;;;;;;;33.92;18.38;;;2.20;98.00;;;;;;5016503;28;20088;-79
2023/12/02 07:14:30;;;;;;;36.33;20.10;;;2.10;98.00;;;;;;5020450;28;20037;-78
2023/12/02 07:16:55;;;;;;;36.00;18.52;;;2.10;98.10;;;;;;5018978;28;20044;-79
2023/12/02 07:19:21;;;;;;;33.38;18.30;;;2.00;98.30;;;;;;4999413;28;20049;-79
2023/12/02 07:21:47;;;;;;;30.50;18.05;;;2.00;98.20;;;;;;5014810;28;20034;-79
2023/12/02 07:24:13;;;;;;;34.00;18.30;;;1.90;98.20;;;;;;4999558;28;20120;-79
2023/12/02 07:26:39;;;;;;;32.55;18.60;;;1.90;98.30;;;;;;5015148;28;20029;-78
2023/12/02 07:29:05;;;;;;;33.05;17.88;;;1.80;98.30;;;;;;5014385;28;20034;-79
2023/12/02 07:31:30;;;;;;;33.22;17.90;;;1.80;98.50;;;;;;4997935;28;20045;-80
2023/12/02 07:33:56;;;;;;;30.80;17.73;;;1.80;98.50;;;;;;4997805;28;20482;-80
2023/12/02 07:36:22;;;;;;;33.10;18.65;;;1.80;98.60;;;;;;5015173;28;20462;-77
2023/12/02 07:38:47;;;;;;;31.48;17.90;;;1.80;98.60;;;;;;5013033;28;20360;-83
2023/12/02 07:41:13;;;;;;;29.30;17.17;;;1.90;98.70;;;;;;5010404;28;20516;-80
2023/12/02 07:43:39;;;;;;;33.55;18.13;;;1.80;98.80;;;;;;5013178;28;20028;-79
2023/12/02 07:46:05;;;;;;;34.80;18.40;;;1.80;98.70;;;;;;5046558;28;20092;-79
2023/12/02 07:48:30;;;;;;;29.95;17.38;;;1.80;98.70;;;;;;5014791;28;20053;-79
2023/12/02 07:50:56;;;;;;;32.67;17.75;;;1.80;98.70;;;;;;5012733;28;20394;-79
2023/12/02 07:53:22;;;;;;;30.17;16.42;;;1.80;98.70;;;;;;5012636;28;20427;-80
2023/12/02 07:55:47;;;;;;;30.42;16.88;;;1.90;98.70;;;;;;5013163;28;20120;-79
2023/12/02 07:58:13;;;;;;;31.70;17.48;;;1.90;98.70;;;;;;5013084;28;20054;-81
2023/12/02 08:00:39;;;;;;;31.25;17.70;;;2.00;98.60;;;;;;5012205;28;20045;-77
2023/12/02 08:03:04;;;;;;;28.67;16.58;;;2.00;98.70;;;;;;5013789;28;20030;-76
2023/12/02 08:05:30;;;;;;;31.75;17.48;;;2.00;98.60;;;;;;5029604;28;20042;-76
2023/12/02 08:07:56;;;;;;;31.27;17.48;;;1.90;98.40;;;;;;5012638;28;20045;-76
2023/12/02 08:10:21;;;;;;;34.47;18.88;;;1.90;98.30;;;;;;5029757;28;20367;-76
2023/12/02 08:12:47;;;;;;;32.00;17.88;;;1.80;98.40;;;;;;4987884;28;20387;-76
2023/12/02 08:15:14;;;;;;;32.83;18.13;;;1.70;98.70;;;;;;4998472;28;20034;-76
2023/12/02 08:17:40;;;;;;;33.17;17.42;;;1.60;98.80;;;;;;5001884;28;20030;-76
2023/12/02 08:20:06;;;;;;;35.28;19.10;;;1.50;98.80;;;;;;4993208;28;20088;-77
2023/12/02 08:22:32;;;;;;;35.72;19.10;;;1.50;99.00;;;;;;4987423;28;20038;-76
2023/12/02 08:24:58;;;;;;;30.40;17.20;;;1.50;99.10;;;;;;4986505;28;20088;-76
2023/12/02 08:27:24;;;;;;;34.00;18.23;;;1.40;99.20;;;;;;5003360;28;20031;-75
2023/12/02 08:29:49;;;;;;;33.50;18.85;;;1.30;99.20;;;;;;5002672;28;20084;-75
2023/12/02 08:32:15;;;;;;;33.17;18.38;;;1.30;99.40;;;;;;5002269;28;20042;-75
2023/12/02 08:34:41;;;;;;;33.40;18.55;;;1.40;99.50;;;;;;5007976;28;20133;-77
2023/12/02 08:37:07;;;;;;;33.40;19.45;;;1.50;99.60;;;;;;5013018;28;20030;-78
2023/12/02 08:39:33;;;;;;;29.27;17.05;;;1.50;99.70;;;;;;5008082;28;20355;-77
2023/12/02 08:41:59;;;;;;;34.55;18.63;;;1.50;99.70;;;;;;4994070;28;20038;-76
2023/12/02 08:44:25;;;;;;;31.27;17.73;;;1.60;99.60;;;;;;5013549;28;20099;-76
2023/12/02 08:46:52;;;;;;;31.05;17.75;;;1.60;99.60;;;;;;5012125;28;20037;-76
2023/12/02 08:49:18;;;;;;;30.58;17.30;;;1.60;99.60;;;;;;5028766;28;20121;-77
2023/12/02 08:51:44;;;;;;;35.35;18.73;;;1.70;99.80;;;;;;5011681;28;20109;-76
2023/12/02 08:54:10;;;;;;;31.38;18.63;;;1.70;99.90;;;;;;5010419;28;20459;-77
2023/12/02 08:56:35;;;;;;;31.88;18.15;;;1.80;99.90;;;;;;5003763;28;20030;-77
2023/12/02 08:59:01;;;;;;;34.78;18.92;;;1.80;99.90;;;;;;4995420;28;20054;-76
2023/12/02 09:01:28;;;;;;;31.45;17.85;;;1.90;99.90;;;;;;4991791;28;20073;-77
2023/12/02 09:03:54;;;;;;;33.78;17.58;;;2.00;99.90;;;;;;4993276;28;20026;-74
2023/12/02 09:06:20;;;;;;;37.47;19.40;;;2.10;99.90;;;;;;4993447;28;20045;-74
2023/12/02 09:08:45;;;;;;;37.67;19.63;;;2.20;99.90;;;;;;4977860;28;20102;-77
2023/12/02 09:11:11;;;;;;;30.42;17.65;;;2.30;99.90;;;;;;4999216;28;20042;-76
2023/12/02 09:13:39;;;;;;;29.67;17.73;;;2.50;99.90;;;;;;4994581;28;20521;-76
2023/12/02 09:16:09;;;;;;;33.15;18.50;;;2.60;99.90;;;;;;5005229;28;20034;-77
2023/12/02 09:18:37;;;;;;;33.05;18.88;;;2.90;99.90;;;;;;5001412;28;20029;-78
2023/12/02 09:21:04;;;;;;;40.13;22.52;;;3.10;99.90;;;;;;5002769;28;20060;-77
2023/12/02 09:23:31;;;;;;;37.58;21.02;;;3.10;99.10;;;;;;5002581;28;20037;-77
2023/12/02 09:26:02;;;;;;;36.28;20.55;;;3.10;98.60;;;;;;4986118;28;20042;-78
2023/12/02 09:28:29;;;;;;;35.45;20.35;;;3.10;98.80;;;;;;5006696;28;20041;-78
2023/12/02 09:31:00;;;;;;;35.55;20.20;;;3.10;98.90;;;;;;4982117;28;20126;-77
2023/12/02 09:33:27;;;;;;;35.33;20.13;;;3.20;98.90;;;;;;4993267;28;20042;-77
2023/12/02 09:36:04;;;;;;;35.38;19.50;;;3.30;99.30;;;;;;4992283;28;20460;-77
2023/12/02 09:38:31;;;;;;;37.03;20.83;;;3.40;99.30;;;;;;4993406;28;20378;-77
2023/12/02 09:41:14;;;;;;;37.63;20.75;;;3.50;99.10;;;;;;4992631;28;20026;-77
2023/12/02 09:44:05;;;;;;;28.40;17.08;;;3.50;99.00;;;;;;4993551;28;20034;-76
2023/12/02 09:46:34;;;;;;;39.90;21.50;;;3.50;99.20;;;;;;4995458;28;20478;-76
2023/12/02 09:49:27;;;;;;;34.85;19.25;;;3.60;98.90;;;;;;5004232;28;20014;-77
2023/12/02 09:54:44;;;;;;;38.70;20.88;;;3.70;98.70;;;;;;5011548;28;20058;-76
2023/12/02 09:57:26;;;;;;;36.58;20.63;;;3.70;98.60;;;;;;5013419;28;20026;-79
2023/12/02 10:00:12;;;;;;;38.10;21.67;;;3.90;98.60;;;;;;5013661;28;20041;-80
2023/12/02 10:02:53;;;;;;;36.97;21.55;;;3.90;97.80;;;;;;5013468;28;20061;-82
2023/12/02 10:05:19;;;;;;;39.72;21.48;;;3.90;97.60;;;;;;5014101;28;20030;-80
2023/12/02 10:08:19;;;;;;;38.17;21.35;;;3.90;97.70;;;;;;4995592;28;20038;-81
2023/12/02 10:11:02;;;;;;;39.42;21.83;;;4.00;97.80;;;;;;5004973;28;20026;-82
2023/12/02 10:13:58;;;;;;;36.88;21.33;;;4.10;97.70;;;;;;5014855;28;20124;-76
2023/12/02 10:16:28;;;;;;;35.88;21.00;;;4.20;97.00;;;;;;5018675;28;20060;-81
2023/12/02 10:18:59;;;;;;;37.53;21.67;;;4.30;96.90;;;;;;5018605;28;20096;-81
2023/12/02 10:21:31;;;;;;;35.45;21.73;;;4.20;96.60;;;;;;5021803;28;20030;-81
2023/12/02 10:24:02;;;;;;;39.80;21.33;;;4.10;96.90;;;;;;5014217;28;20464;-82
2023/12/02 10:26:35;;;;;;;35.13;20.27;;;4.20;97.20;;;;;;5016043;28;20113;-81
2023/12/02 10:29:20;;;;;;;38.22;21.75;;;4.20;97.30;;;;;;5006067;28;20025;-84
2023/12/02 10:32:17;;;;;;;35.30;20.17;;;4.20;97.40;;;;;;5007937;28;20026;-79
2023/12/02 10:35:06;;;;;;;40.20;23.00;;;4.30;97.30;;;;;;5007342;28;20466;-77
2023/12/02 10:37:39;;;;;;;39.20;22.48;;;4.20;97.10;;;;;;5005046;28;20022;-78
2023/12/02 10:40:09;;;;;;;40.73;23.67;;;4.10;97.30;;;;;;5029779;28;20034;-79
2023/12/02 10:42:59;;;;;;;39.97;22.80;;;4.00;97.30;;;;;;5015615;28;20736;-81
2023/12/02 10:45:25;;;;;;;40.05;22.58;;;4.00;97.60;;;;;;5016771;28;20026;-81
2023/12/02 10:47:52;;;;;;;40.85;22.73;;;4.00;97.50;;;;;;5016738;28;20037;-79
2023/12/02 10:50:20;;;;;;;39.70;22.38;;;4.00;97.60;;;;;;4998703;28;20034;-78
2023/12/02 10:53:03;;;;;;;40.58;22.83;;;4.10;97.80;;;;;;5014489;28;20065;-78
2023/12/02 10:55:35;;;;;;;39.95;21.95;;;4.20;97.40;;;;;;5016346;28;20034;-83
2023/12/02 10:58:04;;;;;;;38.38;22.25;;;4.00;97.00;;;;;;5016176;28;20064;-79
2023/12/02 11:00:33;;;;;;;39.97;22.45;;;3.90;97.00;;;;;;5015291;28;20030;-82
2023/12/02 11:03:11;;;;;;;38.42;21.40;;;3.90;97.20;;;;;;5031578;28;20137;-83
2023/12/02 11:05:45;;;;;;;37.72;21.40;;;3.80;97.50;;;;;;5016072;28;20029;-83
2023/12/02 11:08:19;;;;;;;39.05;21.58;;;3.80;97.10;;;;;;5015158;28;20064;-83
2023/12/02 11:10:45;;;;;;;40.90;21.42;;;3.80;97.10;;;;;;5016223;28;20041;-83
2023/12/02 11:13:14;;;;;;;40.13;22.08;;;3.70;97.00;;;;;;5015948;28;20034;-83
2023/12/02 11:16:17;;;;;;;35.60;20.27;;;3.60;97.30;;;;;;5015596;28;20087;-83
2023/12/02 11:19:01;;;;;;;41.53;22.47;;;3.70;97.70;;;;;;5015280;28;20022;-83
2023/12/02 11:21:46;;;;;;;37.15;21.00;;;3.70;97.60;;;;;;5016249;28;20037;-84
2023/12/02 11:24:40;;;;;;;38.42;21.88;;;3.80;97.70;;;;;;5015980;28;20030;-84
2023/12/02 11:27:28;;;;;;;38.75;21.98;;;3.80;97.90;;;;;;5015921;28;20108;-84
2023/12/02 11:30:02;;;;;;;39.80;22.00;;;3.80;97.90;;;;;;5015708;28;20041;-84
2023/12/02 11:32:49;;;;;;;45.90;24.73;;;3.80;97.60;;;;;;5014789;28;20424;-84
2023/12/02 11:35:21;;;;;;;45.92;23.75;;;3.80;97.70;;;;;;5014676;28;20156;-84
2023/12/02 11:38:06;;;;;;;42.35;23.23;;;3.70;98.10;;;;;;5016121;28;20030;-83
2023/12/02 11:40:37;;;;;;;40.88;22.55;;;3.70;98.30;;;;;;5014511;28;20077;-84
2023/12/02 11:43:33;;;;;;;46.60;25.23;;;3.80;98.00;;;;;;5015730;28;20041;-84
2023/12/02 11:46:04;;;;;;;43.97;21.85;;;3.80;97.80;;;;;;5014342;28;20033;-83
2023/12/02 11:48:45;;;;;;;43.42;23.52;;;3.70;98.10;;;;;;5014426;28;20064;-85
2023/12/02 11:51:26;;;;;;;42.83;22.10;;;3.60;98.00;;;;;;5014828;28;20034;-84
2023/12/02 11:53:58;;;;;;;42.55;23.65;;;3.60;98.20;;;;;;5015339;28;20561;-85
2023/12/02 11:56:25;;;;;;;48.17;24.48;;;3.60;98.20;;;;;;5015047;28;20041;-85
2023/12/02 11:58:55;;;;;;;42.83;22.42;;;3.40;98.30;;;;;;5014047;28;20364;-85
2023/12/02 12:01:27;;;;;;;48.40;24.33;;;3.40;98.60;;;;;;5014875;28;20458;-85
2023/12/02 12:03:52;;;;;;;41.80;22.42;;;3.40;98.70;;;;;;5015483;28;20030;-85
2023/12/02 12:06:41;;;;;;;41.55;22.27;;;3.50;98.70;;;;;;5015112;28;20406;-85
2023/12/02 12:09:42;;;;;;;41.35;21.08;;;3.60;98.90;;;;;;5003867;28;20033;-84
2023/12/02 12:12:11;;;;;;;40.38;22.00;;;3.60;99.10;;;;;;5015188;28;20029;-84
2023/12/02 12:14:39;;;;;;;46.50;23.92;;;3.70;99.20;;;;;;5015153;28;20034;-83
2023/12/02 12:17:05;;;;;;;46.00;23.23;;;3.80;98.90;;;;;;5014862;28;20030;-83
2023/12/02 12:19:30;;;;;;;41.65;22.75;;;3.70;98.70;;;;;;5014877;28;20084;-82
2023/12/02 12:21:56;;;;;;;42.08;23.40;;;3.70;98.90;;;;;;4997068;28;20080;-82
2023/12/02 12:24:22;;;;;;;46.30;23.50;;;3.80;98.90;;;;;;5013657;28;20029;-82
2023/12/02 12:26:51;;;;;;;47.70;23.88;;;3.80;98.80;;;;;;5014835;28;20088;-81
2023/12/02 12:29:17;;;;;;;43.58;24.20;;;3.80;99.00;;;;;;5013476;28;20052;-80
2023/12/02 12:31:42;;;;;;;41.33;22.85;;;3.80;99.20;;;;;;5013835;28;20034;-82
2023/12/02 12:34:12;;;;;;;46.05;23.33;;;3.70;99.40;;;;;;5018084;28;20062;-84
2023/12/02 12:36:40;;;;;;;44.10;23.45;;;3.70;99.60;;;;;;5014776;28;20025;-83
2023/12/02 12:39:06;;;;;;;42.88;23.27;;;3.80;99.70;;;;;;5015231;28;20116;-81
2023/12/02 12:41:32;;;;;;;47.88;25.08;;;3.80;99.90;;;;;;5014734;28;20033;-80
2023/12/02 12:43:59;;;;;;;43.50;23.48;;;3.90;99.70;;;;;;5014744;28;20383;-82